• Join FlightAware (Why Join?)
  • Login
  • US Flag GB Flag 
22:01 EST


 

Airport Tracker/Info


-or-


 

Live Flight TrackerFlight Track Log ✈ EJA312 ✈ 24-Oct-2013 ✈ KPIT - KMSY

Flight Track Log - Related Links

Times and Time Zones

All times are in EDT time to prevent confusion due to time zone crossing. See the EJA312 flight status page for this flight to view local times or setup timezone preferences in your user account.

Time Position Orientation Groundspeed Altitude Reporting Facility
EDT Latitude Longitude Course Direction KTS MPH feet Rate Location/Type
15:11 40.5003 -80.2650 194° South 153 176 40,000  Level Cleveland Center
15:12 40.4656 -80.3014 219° Southwest 255 293 5,200 -20,651 Descending Cleveland Center
15:13 40.3631 -80.2994 181° South 283 326 10,400 4,065 Climbing FlightAware ADS-B
15:13 40.3869 -80.2992 179° South 268 308 9,400 1,320 Descending Cleveland Center
15:14 40.3181 -80.3058 184° South 273 314 12,600 2,516 Climbing Cleveland Center
15:15 40.1778 -80.2992 192° South  Level FlightAware Approximate
15:15 40.2289 -80.3239 189° South 323 372 14,600  Level Cleveland Center
15:16 40.0809 -80.3269 192° South  Level FlightAware Approximate
15:16 40.1089 -80.3467 188° South 365 420 17,000  Level Cleveland Center
15:17 39.9923 -80.3526 194° South  Level FlightAware Approximate
15:17 40.0025 -80.3681 189° South 386 444 18,900  Level Cleveland Center
15:18 39.8978 -80.4000 193° South 392 451 20,900 1,920 Climbing Cleveland Center
15:20 39.8111 -80.4833 216° Southwest 389 448 22,900 1,935 Climbing Cleveland Center
15:21 39.7256 -80.5600 215° Southwest 376 433 24,900 1,500 Climbing Cleveland Center
15:22 39.6414 -80.6367 215° Southwest 370 426 26,000 680 Climbing Cleveland Center
15:22 39.5836 -80.6903 216° Southwest 377 434 26,000  Level Indianapolis Center
15:23 39.4961 -80.7678 214° Southwest 380 437 26,000  Level Indianapolis Center
15:24 39.3933 -80.8597 215° Southwest 373 429 26,000 290 Level Indianapolis Center
15:25 39.2983 -80.9172 205° Southwest 383 441 26,600 1,152 Climbing Indianapolis Center
15:26 39.1969 -80.9547 196° South 381 438 28,400 1,680 Climbing Indianapolis Center
15:27 39.1025 -80.9997 200° South 359 413 30,100 1,500 Climbing Indianapolis Center
15:28 39.0275 -81.0711 216° Southwest 336 387 31,500 1,355 Climbing Indianapolis Center
15:29 38.9531 -81.1422 217° Southwest 332 382 32,900 1,210 Climbing Indianapolis Center
15:30 38.8789 -81.2122 216° Southwest 328 377 34,000 1,016 Climbing Indianapolis Center
15:31 38.7894 -81.2972 217° Southwest 330 380 35,000 726 Climbing Indianapolis Center
15:33 38.7128 -81.3689 216° Southwest 335 386 35,500 484 Climbing Indianapolis Center
15:34 38.6444 -81.4344 217° Southwest 338 389 36,000 242 Climbing Indianapolis Center
15:35 38.5556 -81.5181 216° Southwest 343 395 36,000  Level Indianapolis Center
15:36 38.4772 -81.5908 216° Southwest 344 396 36,000 591 Level Indianapolis Center
15:41 38.0550 -81.9825 216° Southwest 322 371 40,000 635 Climbing FlightAware ADS-B
15:42 38.0132 -82.0211 216° Southwest 333 383 40,000  Level FlightAware ADS-B
15:42 37.9753 -82.0560 216° Southwest 340 391 40,000  Level FlightAware ADS-B
15:43 37.9237 -82.1033 216° Southwest 346 398 40,000  Level FlightAware ADS-B
15:44 37.8433 -82.1770 216° Southwest 356 410 40,000  Level FlightAware ADS-B
15:45 37.7911 -82.2247 216° Southwest 360 414 40,000  Level FlightAware ADS-B
15:50 37.3846 -82.5934 216° Southwest 344 396 40,000  Level FlightAware ADS-B
15:50 37.3445 -82.6295 216° Southwest 345 397 40,000  Level FlightAware ADS-B
15:51 37.3041 -82.6658 216° Southwest 345 397 40,000  Level FlightAware ADS-B
15:51 37.2603 -82.7051 216° Southwest 345 397 40,000  Level FlightAware ADS-B
15:55 37.0220 -82.9182 216° Southwest 345 397 40,000  Level FlightAware ADS-B
15:55 36.9801 -82.9554 215° Southwest 347 399 40,000  Level FlightAware ADS-B
15:56 36.9399 -82.9911 215° Southwest 347 399 40,000  Level FlightAware ADS-B
15:56 36.8995 -83.0270 215° Southwest 348 400 40,000  Level FlightAware ADS-B
15:57 36.8592 -83.0627 215° Southwest 348 400 40,000  Level FlightAware ADS-B
15:57 36.8183 -83.0989 215° Southwest 349 402 40,000  Level FlightAware ADS-B
15:58 36.7750 -83.1371 215° Southwest 349 402 40,000  Level FlightAware ADS-B
15:58 36.7331 -83.1742 215° Southwest 350 403 40,000  Level FlightAware ADS-B
15:59 36.6857 -83.2159 215° Southwest 349 402 40,000  Level FlightAware ADS-B
15:59 36.6459 -83.2509 215° Southwest 350 403 40,000  Level FlightAware ADS-B
16:00 36.6050 -83.2868 215° Southwest 351 404 40,000  Level FlightAware ADS-B
16:00 36.5615 -83.3250 215° Southwest 350 403 40,000  Level FlightAware ADS-B
16:01 36.5209 -83.3605 215° Southwest 351 404 40,000  Level FlightAware ADS-B
16:01 36.4798 -83.3965 215° Southwest 350 403 40,000  Level FlightAware ADS-B
16:02 36.4390 -83.4321 215° Southwest 349 402 40,000  Level FlightAware ADS-B
16:02 36.3995 -83.4666 215° Southwest 347 399 40,000  Level FlightAware ADS-B
16:03 36.3550 -83.5054 215° Southwest 346 398 40,000  Level FlightAware ADS-B
16:03 36.3146 -83.5406 215° Southwest 346 398 40,000  Level FlightAware ADS-B
16:04 36.2732 -83.5766 215° Southwest 346 398 40,000  Level FlightAware ADS-B
16:04 36.2337 -83.6109 215° Southwest 346 398 40,000  Level FlightAware ADS-B
16:05 36.1933 -83.6460 215° Southwest 346 398 40,000  Level FlightAware ADS-B
16:06 36.1490 -83.6843 215° Southwest 347 399 40,000  Level FlightAware ADS-B
16:06 36.1095 -83.7185 215° Southwest 346 398 40,000  Level FlightAware ADS-B
16:07 36.0677 -83.7545 215° Southwest 346 398 40,000  Level FlightAware ADS-B
16:07 36.0217 -83.7942 215° Southwest 345 397 40,000  Level FlightAware ADS-B
16:08 35.9817 -83.8287 215° Southwest 345 397 40,000  Level FlightAware ADS-B
16:08 35.9421 -83.8627 215° Southwest 345 397 40,000  Level FlightAware ADS-B
16:09 35.9110 -83.8897 215° Southwest 346 398 40,000  Level FlightAware ADS-B
16:09 35.8957 -83.9067 222° Southwest 336 387 40,000  Level FlightAware ADS-B
16:09 35.8651 -83.9512 230° Southwest 333 383 40,000  Level FlightAware ADS-B
16:10 35.8339 -83.9948 229° Southwest 334 384 40,000  Level FlightAware ADS-B
16:10 35.8002 -84.0417 228° Southwest 334 384 40,000  Level FlightAware ADS-B
16:11 35.7695 -84.0845 229° Southwest 334 384 40,000  Level FlightAware ADS-B
16:11 35.7379 -84.1286 229° Southwest 333 383 40,000  Level FlightAware ADS-B
16:12 35.7026 -84.1778 229° Southwest 333 383 40,000  Level FlightAware ADS-B
16:12 35.6719 -84.2208 229° Southwest 333 383 40,000  Level FlightAware ADS-B
16:13 35.6406 -84.2642 228° Southwest 333 383 40,000  Level FlightAware ADS-B
16:13 35.6091 -84.3080 229° Southwest 332 382 40,000  Level FlightAware ADS-B
16:14 35.5776 -84.3516 228° Southwest 334 384 40,000  Level FlightAware ADS-B
16:15 35.5469 -84.3942 228° Southwest 333 383 40,000  Level FlightAware ADS-B
16:15 35.5155 -84.4378 229° Southwest 334 384 40,000  Level FlightAware ADS-B
16:16 35.4843 -84.4809 228° Southwest 334 384 40,000  Level FlightAware ADS-B
16:16 35.4524 -84.5249 228° Southwest 334 384 40,000  Level FlightAware ADS-B
16:17 35.4213 -84.5677 228° Southwest 335 386 40,000  Level FlightAware ADS-B
16:17 35.3805 -84.6240 228° Southwest 335 386 40,000  Level FlightAware ADS-B
16:18 35.3381 -84.6821 228° Southwest 334 384 40,000  Level FlightAware ADS-B
16:18 35.3066 -84.7254 228° Southwest 336 387 40,000  Level FlightAware ADS-B
16:19 35.2737 -84.7704 228° Southwest 336 387 40,000  Level FlightAware ADS-B
16:19 35.2427 -84.8130 228° Southwest 336 387 40,000  Level FlightAware ADS-B
16:20 35.2096 -84.8583 228° Southwest 337 388 40,000  Level FlightAware ADS-B
16:20 35.1776 -84.9020 228° Southwest 338 389 40,000  Level FlightAware ADS-B
16:21 35.1461 -84.9448 228° Southwest 338 389 40,000  Level FlightAware ADS-B
16:21 35.1129 -84.9902 228° Southwest 339 390 40,000  Level FlightAware ADS-B
16:22 35.0806 -85.0341 228° Southwest 339 390 40,000  Level FlightAware ADS-B
16:23 35.0061 -85.1367 228° Southwest 336 387 40,000  Level Atlanta Center
16:24 34.9428 -85.2219 228° Southwest 336 387 40,000  Level Atlanta Center
16:25 34.8792 -85.3072 228° Southwest 336 387 40,000  Level Atlanta Center
16:26 34.8158 -85.3922 228° Southwest 341 392 40,000  Level Atlanta Center
16:27 34.7522 -85.4797 229° Southwest 341 392 40,000  Level Atlanta Center
16:28 34.6886 -85.5619 227° Southwest 341 392 40,000  Level Atlanta Center
16:29 34.6247 -85.6492 228° Southwest 341 392 40,000  Level Atlanta Center
16:30 34.5611 -85.7339 228° Southwest 346 398 40,000  Level Atlanta Center
16:31 34.5100 -85.8033 228° Southwest 346 398 40,000  Level Atlanta Center
16:32 34.4378 -85.8950 226° Southwest 346 398 40,000  Level Atlanta Center
16:33 34.3736 -85.9842 229° Southwest 346 398 40,000  Level Atlanta Center
16:34 34.3056 -86.0681 226° Southwest 351 404 40,000  Level Atlanta Center
16:35 34.2436 -86.1522 228° Southwest 351 404 40,000  Level Atlanta Center
16:36 34.1775 -86.2383 227° Southwest 351 404 40,000  Level Atlanta Center
16:37 34.1111 -86.3219 226° Southwest 346 398 40,000  Level Atlanta Center
16:38 34.0447 -86.4106 228° Southwest 346 398 40,000  Level Atlanta Center
16:39 33.9783 -86.4964 227° Southwest 346 398 40,000  Level Atlanta Center
16:40 33.9119 -86.5819 227° Southwest 351 404 40,000  Level Atlanta Center
16:41 33.8475 -86.6675 228° Southwest 351 404 40,000  Level Atlanta Center
16:42 33.7789 -86.7556 227° Southwest 357 411 40,000  Level Atlanta Center
16:43 33.7144 -86.8408 228° Southwest 357 411 40,000  Level Atlanta Center
16:44 33.6478 -86.9286 228° Southwest 357 411 40,000  Level Atlanta Center
16:45 33.5869 -87.0211 232° Southwest 357 411 40,000  Level Atlanta Center
16:46 33.5264 -87.1114 231° Southwest 351 404 40,000  Level Atlanta Center
16:47 33.4592 -87.2111 231° Southwest 351 404 40,000  Level Atlanta Center
16:48 33.4003 -87.3033 233° Southwest 356 410 40,000  Level Atlanta Center
16:49 33.3394 -87.3931 231° Southwest 356 410 40,000  Level Atlanta Center
16:50 33.2764 -87.4850 231° Southwest 362 417 40,000  Level Atlanta Center
16:52 33.1461 -87.6825 232° Southwest 362 417 40,000  Level Memphis Center
16:53 33.0856 -87.7711 231° Southwest 362 417 40,000  Level Memphis Center
16:54 33.0225 -87.8647 231° Southwest 362 417 40,000  Level Memphis Center
16:55 32.9578 -87.9631 232° Southwest 357 411 40,000  Level Memphis Center
16:56 32.8969 -88.0539 231° Southwest 357 411 40,000  Level Memphis Center
16:57 32.8339 -88.1444 230° Southwest 357 411 40,000  Level Memphis Center
16:58 32.7728 -88.2375 232° Southwest 357 411 40,000  Level Memphis Center
16:59 32.7117 -88.3253 230° Southwest 357 411 40,000  Level Memphis Center
17:00 32.6506 -88.4181 232° Southwest 357 411 40,000  Level Memphis Center
17:01 32.5850 -88.5081 229° Southwest 357 411 40,000 -350 Level Memphis Center
17:02 32.5153 -88.5933 226° Southwest 362 417 39,300 -756 Descending Memphis Center
17:03 32.4414 -88.6736 223° Southwest 362 417 38,500 -645 Descending Memphis Center
17:04 32.3692 -88.7511 222° Southwest 362 417 38,000 -298 Descending Memphis Center
17:05 32.2950 -88.8286 221° Southwest 362 417 37,900 -454 Descending Memphis Center
17:06 32.2189 -88.9111 223° Southwest 368 423 37,100 -850 Descending Memphis Center
17:07 32.1425 -88.9908 221° Southwest 368 423 36,200 -843 Descending Memphis Center
17:08 32.0619 -89.0778 222° Southwest 378 435 35,400 -1,100 Descending Memphis Center
17:09 31.9794 -89.1622 221° Southwest 384 442 34,000 -1,750 Descending Memphis Center
17:10 31.8967 -89.2514 222° Southwest 389 448 31,900 -2,091 Descending Memphis Center
17:12 31.8008 -89.3528 222° Southwest 398 458 29,400 -2,104 Descending Houston Center
17:13 31.7153 -89.4425 222° Southwest 410 472 27,200 -2,208 Descending Houston Center
17:14 31.6122 -89.5189 212° Southwest 446 513 24,800 -1,536 Descending Houston Center
17:15 31.5008 -89.5919 209° Southwest 436 502 24,000 -387 Descending Houston Center
17:16 31.3981 -89.6572 208° Southwest 424 488 24,000  Level Houston Center
17:17 31.2961 -89.7228 209° Southwest 419 482 24,000  Level Houston Center
17:18 31.1761 -89.7992 209° Southwest 412 474 24,000 -677 Level Houston Center
17:19 31.0764 -89.8639 209° Southwest 412 474 22,600 -1,742 Descending Houston Center
17:20 30.9753 -89.9278 208° Southwest 415 478 20,400 -2,250 Descending Houston Center
17:20 30.9381 -89.9508 208° Southwest 419 482 19,600 -2,400 Descending Houston Center
17:21 30.8664 -89.9950 208° Southwest 415 478 18,000 -1,909 Descending Houston Center
17:21 30.8733 -89.9925 17° North 418 481 18,200 -2,164 Climbing Houston Center
17:22 30.7619 -90.0625 208° Southwest 400 460 15,800 -2,032 Descending Houston Center
17:22 30.7767 -90.0539 27° Northeast 405 466 16,100 -1,967 Climbing Houston Center
17:23 30.6678 -90.1219 208° Southwest 383 441 13,800 -2,381 Descending Houston Center
17:23 30.6636 -90.1244 207° Southwest 389 448 13,600 -2,200 Descending Houston Center
17:24 30.5711 -90.1694 203° Southwest 370 426 11,600 -2,032 Descending Houston Center
17:24 30.5678 -90.1700 188° South 376 433 11,500 -2,262 Descending Houston Center
17:25 30.4844 -90.2044 200° South 328 377 9,300 -2,226 Descending Houston Center
17:25 30.4811 -90.2069 213° Southwest 346 398 9,200 -1,964 Descending Houston Center
17:26 30.4183 -90.2336 200° South 258 297 7,500 -1,935 Descending Houston Center
17:26 30.4117 -90.2358 196° South 283 326 7,200 -1,967 Descending Houston Center
17:27 30.3483 -90.2631 200° South 265 305 5,500 -1,935 Descending Houston Center
17:27 30.3414 -90.2661 201° Southwest 272 313 5,200 -1,500 Descending Houston Center
17:28 30.2781 -90.2922 200° South 267 307 4,000 -1,258 Descending Houston Center
17:28 30.2600 -90.3011 203° Southwest 267 307 3,900 -358 Descending Houston Center
17:29 30.2039 -90.3242 200° South 245 282 3,600 -484 Descending Houston Center
17:29 30.1956 -90.3297 210° Southwest 258 297 3,400 -1,279 Descending Houston Center
17:30 30.1378 -90.3531 199° South 250 288 2,300 -1,355 Descending Houston Center
17:30 30.1306 -90.3564 202° Southwest 252 290 2,000 -711 Descending Houston Center
17:31 30.0694 -90.3800 198° South 238 274 1,400 -425 Descending Houston Center
17:32 30.0256 -90.3694 168° South 146 168 1,200 -194 Descending Houston Center
17:32 30.0261 -90.3711 291° West 189 217 1,200 -486 Level Houston Center
17:33 30.0083 -90.3242 114° Southeast 150 173 600 -486 Descending Houston Center
17:34 30.0003 -90.2961 108° East 125 144 300 -484 Descending Houston Center
17:34 29.9994 -90.2889 98° East 130 150 100 -857 Descending Houston Center
17:36 29.9933 -90.2590 163° South  Level Estimated